createdAt,value
2023-04-05T00:01:58.688Z,-5.99
2023-04-05T00:04:25.695Z,-6.88
2023-04-05T00:06:53.319Z,-7.84
2023-04-05T00:09:21.184Z,-9.15
2023-04-05T00:11:48.749Z,-8.76
2023-04-05T00:14:15.781Z,-6.61
2023-04-05T00:16:43.172Z,-6.47
2023-04-05T00:19:13.028Z,-7.45
2023-04-05T00:21:40.695Z,-8.71
2023-04-05T00:24:10.031Z,-9.10
2023-04-05T00:26:36.811Z,-9.22
2023-04-05T00:29:03.900Z,-7.26
2023-04-05T00:31:31.039Z,-8.11
2023-04-05T00:33:58.246Z,-8.86
2023-04-05T00:36:26.386Z,-9.41
2023-04-05T00:38:55.538Z,-10.12
2023-04-05T00:41:22.520Z,-8.84
2023-04-05T00:43:49.630Z,-7.36
2023-04-05T00:46:17.017Z,-7.34
2023-04-05T00:48:44.244Z,-8.04
2023-04-05T00:51:11.818Z,-8.31
2023-04-05T00:53:40.149Z,-7.31
2023-04-05T00:56:08.522Z,-8.80
2023-04-05T00:58:37.068Z,-10.19
2023-04-05T01:01:14.073Z,-9.28
2023-04-05T01:03:54.460Z,-8.17
2023-04-05T01:06:34.428Z,-8.31
2023-04-05T01:09:06.576Z,-8.28
2023-04-05T01:11:35.509Z,-8.60
2023-04-05T01:14:02.638Z,-9.43
2023-04-05T01:16:29.877Z,-8.91
2023-04-05T01:18:57.108Z,-6.88
2023-04-05T01:21:39.516Z,-8.38
2023-04-05T01:24:32.440Z,-7.07
2023-04-05T01:27:05.206Z,-8.22
2023-04-05T01:29:59.570Z,-6.68
2023-04-05T01:32:29.256Z,-9.31
2023-04-05T01:35:45.055Z,-8.65
2023-04-05T01:38:18.171Z,-8.20
2023-04-05T01:40:45.635Z,-7.79
2023-04-05T01:43:14.356Z,-8.24
2023-04-05T01:45:42.516Z,-7.96
2023-04-05T01:48:10.872Z,-7.19
2023-04-05T01:50:37.993Z,-8.40
2023-04-05T01:53:06.821Z,-7.44
2023-04-05T01:55:33.738Z,-7.89
2023-04-05T01:58:00.743Z,-7.94
2023-04-05T02:00:28.252Z,-6.63
2023-04-05T02:02:55.744Z,-7.73
2023-04-05T02:05:22.596Z,-8.26
2023-04-05T02:07:49.586Z,-8.71
2023-04-05T02:10:16.584Z,-8.76
2023-04-05T02:12:43.637Z,-7.28
2023-04-05T02:15:10.944Z,-8.76
2023-04-05T02:17:46.224Z,-8.37
2023-04-05T02:20:14.716Z,-8.57
2023-04-05T02:22:45.183Z,-8.02
2023-04-05T02:25:13.286Z,-7.48
2023-04-05T02:27:41.404Z,-7.11
2023-04-05T02:30:08.941Z,-6.76
2023-04-05T02:32:36.308Z,-7.72
2023-04-05T02:35:03.333Z,-6.72
2023-04-05T02:37:30.499Z,-7.17
2023-04-05T02:39:57.241Z,-7.65
2023-04-05T02:42:24.099Z,-7.46
2023-04-05T02:44:52.325Z,-6.63
2023-04-05T02:47:23.126Z,-6.80
2023-04-05T02:49:57.640Z,-8.27
2023-04-05T02:52:26.756Z,-8.24
2023-04-05T02:54:53.684Z,-8.04
2023-04-05T02:57:26.384Z,-6.86
2023-04-05T03:00:00.783Z,-7.11
2023-04-05T03:02:30.096Z,-7.20
2023-04-05T03:04:57.407Z,-7.23
2023-04-05T03:07:25.806Z,-7.62
2023-04-05T03:09:54.265Z,-6.82
2023-04-05T03:12:21.647Z,-6.51
2023-04-05T03:14:49.324Z,-6.31
2023-04-05T03:17:20.957Z,-6.68
2023-04-05T03:19:57.460Z,-6.73
2023-04-05T03:22:27.339Z,-6.71
2023-04-05T03:24:57.432Z,-6.77
2023-04-05T03:27:24.661Z,-6.59
2023-04-05T03:30:05.045Z,-6.65
2023-04-05T03:32:36.520Z,-6.99
2023-04-05T03:35:13.295Z,-6.77
2023-04-05T03:37:44.440Z,-6.54
2023-04-05T03:40:13.147Z,-9.12
2023-04-05T03:42:39.926Z,-7.52
2023-04-05T03:45:07.700Z,-8.04
2023-04-05T03:47:35.079Z,-7.57
2023-04-05T03:50:06.151Z,-8.79
2023-04-05T03:52:32.923Z,-8.79
2023-04-05T03:55:01.252Z,-7.97
2023-04-05T03:57:31.244Z,-9.84
2023-04-05T04:00:14.517Z,-8.35
2023-04-05T04:02:46.281Z,-8.18
2023-04-05T04:05:18.251Z,-8.43
2023-04-05T04:07:49.188Z,-8.84
2023-04-05T04:10:20.397Z,-7.80
2023-04-05T04:12:51.420Z,-6.99
2023-04-05T04:15:22.425Z,-7.07
2023-04-05T04:18:08.684Z,-6.76
2023-04-05T04:20:47.922Z,-10.13
2023-04-05T04:23:34.951Z,-7.17
2023-04-05T04:26:37.536Z,-8.46
2023-04-05T04:29:19.485Z,-8.22
2023-04-05T04:31:58.526Z,-8.00
2023-04-05T04:34:56.440Z,-8.21
2023-04-05T04:37:38.872Z,-8.46
2023-04-05T04:40:39.214Z,-7.14
2023-04-05T04:43:27.616Z,-7.06
2023-04-05T04:46:43.361Z,-7.68
2023-04-05T04:49:28.382Z,-6.74
2023-04-05T04:51:55.510Z,-6.81
2023-04-05T04:54:23.651Z,-7.59
2023-04-05T04:56:50.561Z,-8.16
2023-04-05T04:59:17.403Z,-9.65
2023-04-05T05:01:47.257Z,-8.33
2023-04-05T05:04:14.215Z,-7.15
2023-04-05T05:06:42.215Z,-8.82
2023-04-05T05:09:09.022Z,-10.77
2023-04-05T05:11:45.034Z,-9.71
2023-04-05T05:14:13.122Z,-8.86
2023-04-05T05:16:39.898Z,-9.15
2023-04-05T05:19:07.117Z,-9.66
2023-04-05T05:21:50.562Z,-8.56
2023-04-05T05:24:17.416Z,-8.12
2023-04-05T05:26:44.309Z,-6.56
2023-04-05T05:29:11.891Z,-7.59
2023-04-05T05:31:42.984Z,-8.09
2023-04-05T05:34:09.836Z,-6.48
2023-04-05T05:36:38.640Z,-6.31
2023-04-05T05:39:06.058Z,-5.74
2023-04-05T05:41:32.864Z,-4.94
2023-04-05T05:43:59.720Z,-3.20
2023-04-05T05:46:27.256Z,-3.24
2023-04-05T05:48:54.094Z,-6.81
2023-04-05T05:51:20.881Z,-5.75
2023-04-05T05:53:48.141Z,-5.83
2023-04-05T05:56:14.920Z,-4.81
2023-04-05T05:58:42.313Z,-4.81
2023-04-05T06:01:12.550Z,-4.82
2023-04-05T06:03:39.517Z,-5.90
2023-04-05T06:06:08.570Z,-4.43
2023-04-05T06:08:35.431Z,-4.07
2023-04-05T06:11:02.520Z,-4.97
2023-04-05T06:13:29.374Z,-3.42
2023-04-05T06:15:56.188Z,-4.19
2023-04-05T06:18:23.856Z,-2.87
2023-04-05T06:20:50.685Z,-3.39
2023-04-05T06:23:17.545Z,-3.42
2023-04-05T06:25:44.537Z,-4.45
2023-04-05T06:28:11.272Z,-3.23
2023-04-05T06:30:39.335Z,-2.53
2023-04-05T06:33:06.408Z,-3.63
2023-04-05T06:35:33.267Z,-2.08
2023-04-05T06:38:00.227Z,-2.75
2023-04-05T06:40:27.611Z,-4.02
2023-04-05T06:42:54.815Z,-2.53
2023-04-05T06:45:26.710Z,-3.13
2023-04-05T06:47:54.237Z,-2.02
2023-04-05T06:50:21.308Z,-3.13
2023-04-05T06:52:48.056Z,-0.76
2023-04-05T06:55:14.877Z,-1.41
2023-04-05T06:57:41.635Z,-2.59
2023-04-05T07:00:11.681Z,-2.70
2023-04-05T07:02:39.575Z,-1.65
2023-04-05T07:05:06.734Z,-1.94
2023-04-05T07:07:33.523Z,-1.60
2023-04-05T07:10:00.583Z,-2.73
2023-04-05T07:12:27.935Z,-1.89
2023-04-05T07:14:55.043Z,-1.68
2023-04-05T07:17:22.126Z,-0.64
2023-04-05T07:19:49.026Z,-0.82
2023-04-05T07:22:15.731Z,-0.33
2023-04-05T07:24:44.620Z,-0.37
2023-04-05T07:27:11.614Z,-1.65
2023-04-05T07:29:40.787Z,-0.46
2023-04-05T07:32:08.028Z,0.56
2023-04-05T07:34:35.925Z,-0.45
2023-04-05T07:37:06.819Z,-0.25
2023-04-05T07:39:33.884Z,-1.98
2023-04-05T07:42:00.614Z,0.46
2023-04-05T07:44:27.665Z,-1.48
2023-04-05T07:46:54.703Z,-1.25
2023-04-05T07:49:28.390Z,-1.74
2023-04-05T07:51:56.562Z,-0.52
2023-04-05T07:54:24.093Z,1.59
2023-04-05T07:56:52.299Z,-2.59
2023-04-05T07:59:19.154Z,-1.24
2023-04-05T08:01:46.041Z,0.39
2023-04-05T08:04:13.371Z,0.46
2023-04-05T08:06:40.241Z,0.29
2023-04-05T08:09:09.045Z,1.15
2023-04-05T08:11:36.084Z,-0.50
2023-04-05T08:14:03.253Z,-1.40
2023-04-05T08:16:30.145Z,1.35
2023-04-05T08:18:57.025Z,0.63
2023-04-05T08:21:23.854Z,1.78
2023-04-05T08:23:50.868Z,2.25
2023-04-05T08:26:18.171Z,3.11
2023-04-05T08:28:45.225Z,3.05
2023-04-05T08:31:13.742Z,3.02
2023-04-05T08:33:41.014Z,4.28
2023-04-05T08:36:09.254Z,3.72
2023-04-05T08:38:36.877Z,3.57
2023-04-05T08:41:23.097Z,4.64
2023-04-05T08:43:52.666Z,1.72
2023-04-05T08:46:21.235Z,4.08
2023-04-05T08:48:48.317Z,5.02
2023-04-05T08:51:21.975Z,5.94
2023-04-05T08:53:49.456Z,0.31
2023-04-05T08:56:22.458Z,0.83
2023-04-05T08:59:00.957Z,5.66
2023-04-05T09:01:31.063Z,0.53
2023-04-05T09:04:01.715Z,2.72
2023-04-05T09:06:29.220Z,2.42
2023-04-05T09:08:59.185Z,1.37
2023-04-05T09:11:26.320Z,2.57
2023-04-05T09:13:53.251Z,6.10
2023-04-05T09:16:20.641Z,2.32
2023-04-05T09:18:47.621Z,3.85
2023-04-05T09:21:16.345Z,2.43
2023-04-05T09:23:56.410Z,3.58
2023-04-05T09:26:25.295Z,4.51
2023-04-05T09:28:56.762Z,4.40
2023-04-05T09:31:33.097Z,6.73
2023-04-05T09:34:03.399Z,3.95
2023-04-05T09:36:33.477Z,6.12
2023-04-05T09:39:06.823Z,5.97
2023-04-05T09:41:35.289Z,4.36
2023-04-05T09:44:02.900Z,4.99
2023-04-05T09:46:38.456Z,0.96
2023-04-05T09:49:08.019Z,4.98
2023-04-05T09:51:36.590Z,4.60
2023-04-05T09:54:10.795Z,3.39
2023-04-05T09:56:40.033Z,5.22
2023-04-05T09:59:10.623Z,6.93
2023-04-05T10:01:41.214Z,6.94
2023-04-05T10:04:08.941Z,7.75
2023-04-05T10:06:39.771Z,4.80
2023-04-05T10:09:08.396Z,9.36
2023-04-05T10:11:37.197Z,1.83
2023-04-05T10:14:06.026Z,4.70
2023-04-05T10:16:37.326Z,2.93
2023-04-05T10:19:11.862Z,4.89
2023-04-05T10:21:44.218Z,3.54
2023-04-05T10:24:17.444Z,2.33
2023-04-05T10:27:04.504Z,7.55
2023-04-05T10:29:45.667Z,2.99
2023-04-05T10:32:31.689Z,6.84
2023-04-05T10:35:20.565Z,4.17
2023-04-05T10:37:59.757Z,8.82
2023-04-05T10:40:32.149Z,9.89
2023-04-05T10:43:00.886Z,7.82
2023-04-05T10:45:28.753Z,5.90
2023-04-05T10:48:31.357Z,6.79
2023-04-05T10:50:58.832Z,9.56
2023-04-05T10:53:27.314Z,9.76
2023-04-05T10:55:56.070Z,4.03
2023-04-05T10:58:23.756Z,3.51
2023-04-05T11:00:52.295Z,9.70
2023-04-05T11:03:47.938Z,13.27
2023-04-05T11:06:22.896Z,9.38
2023-04-05T11:08:55.055Z,9.26
2023-04-05T11:11:24.086Z,9.60
2023-04-05T11:13:56.041Z,12.20
2023-04-05T11:16:24.544Z,8.53
2023-04-05T11:18:52.475Z,9.49
2023-04-05T11:21:26.336Z,8.36
2023-04-05T11:24:12.118Z,9.41
2023-04-05T11:26:45.424Z,10.69
2023-04-05T11:29:12.178Z,10.90
2023-04-05T11:32:00.495Z,12.63
2023-04-05T11:34:27.231Z,11.73
2023-04-05T11:36:54.273Z,10.71
2023-04-05T11:39:23.882Z,11.66
2023-04-05T11:42:03.748Z,12.28
2023-04-05T11:44:41.330Z,9.97
2023-04-05T11:47:09.420Z,8.68
2023-04-05T11:49:36.451Z,8.74
2023-04-05T11:52:20.856Z,12.97
2023-04-05T11:54:49.130Z,12.33
2023-04-05T11:57:23.220Z,11.51
2023-04-05T11:59:52.227Z,14.64
2023-04-05T12:02:20.008Z,12.44
2023-04-05T12:04:55.578Z,13.62
2023-04-05T12:07:26.389Z,10.11
2023-04-05T12:10:20.023Z,11.97
2023-04-05T12:12:49.296Z,11.34
2023-04-05T12:15:19.464Z,9.63
2023-04-05T12:17:50.950Z,14.41
2023-04-05T12:20:23.883Z,12.45
2023-04-05T12:22:53.337Z,13.43
2023-04-05T12:25:21.053Z,12.83
2023-04-05T12:27:48.215Z,12.64
2023-04-05T12:30:19.626Z,11.02
2023-04-05T12:32:53.294Z,11.55
2023-04-05T12:35:32.667Z,10.61
2023-04-05T12:38:02.295Z,11.32
2023-04-05T12:40:31.091Z,12.46
2023-04-05T12:43:07.666Z,13.51
2023-04-05T12:45:40.607Z,12.28
2023-04-05T12:48:34.853Z,10.36
2023-04-05T12:51:05.083Z,11.32
2023-04-05T12:53:33.489Z,6.82
2023-04-05T12:56:01.645Z,11.56
2023-04-05T12:58:37.024Z,10.14
2023-04-05T13:01:04.660Z,11.54
2023-04-05T13:03:32.615Z,10.44
2023-04-05T13:05:59.711Z,10.53
2023-04-05T13:08:27.745Z,10.44
2023-04-05T13:10:57.208Z,9.85
2023-04-05T13:13:25.419Z,9.45
2023-04-05T13:15:52.550Z,10.66
2023-04-05T13:18:20.046Z,10.42
2023-04-05T13:20:47.574Z,10.80
2023-04-05T13:23:14.409Z,10.28
2023-04-05T13:25:43.509Z,9.76
2023-04-05T13:28:10.732Z,10.74
2023-04-05T13:30:37.993Z,10.50
2023-04-05T13:33:05.238Z,7.78
2023-04-05T13:35:33.156Z,8.87
2023-04-05T13:38:04.226Z,6.37
2023-04-05T13:40:32.660Z,6.72
2023-04-05T13:42:59.952Z,8.69
2023-04-05T13:45:28.134Z,6.32
2023-04-05T13:47:55.656Z,6.92
2023-04-05T13:50:22.603Z,6.63
2023-04-05T13:52:49.370Z,9.09
2023-04-05T13:55:16.817Z,6.68
2023-04-05T13:57:43.630Z,8.52
2023-04-05T14:00:11.036Z,6.39
2023-04-05T14:02:41.172Z,8.54
2023-04-05T14:05:08.966Z,6.95
2023-04-05T14:07:36.115Z,4.48
2023-04-05T14:10:03.901Z,5.06
2023-04-05T14:12:32.135Z,8.90
2023-04-05T14:15:00.363Z,8.25
2023-04-05T14:17:27.347Z,7.81
2023-04-05T14:19:54.222Z,7.35
2023-04-05T14:22:21.710Z,8.93
2023-04-05T14:24:48.812Z,9.08
2023-04-05T14:27:15.649Z,6.24
2023-04-05T14:29:44.212Z,7.29
2023-04-05T14:32:11.184Z,7.43
2023-04-05T14:34:38.051Z,7.81
2023-04-05T14:37:06.757Z,8.96
2023-04-05T14:39:33.792Z,5.59
2023-04-05T14:42:00.971Z,6.26
2023-04-05T14:44:28.032Z,8.52
2023-04-05T14:46:54.890Z,8.50
2023-04-05T14:49:22.033Z,7.84
2023-04-05T14:51:48.968Z,6.16
2023-04-05T14:54:15.977Z,5.40
2023-04-05T14:56:42.915Z,5.87
2023-04-05T14:59:09.850Z,7.10
2023-04-05T15:01:37.804Z,6.43
2023-04-05T15:04:04.747Z,5.49
2023-04-05T15:06:32.372Z,5.52
2023-04-05T15:08:59.664Z,4.88
2023-04-05T15:11:27.199Z,5.04
2023-04-05T15:13:54.035Z,6.70
2023-04-05T15:16:21.024Z,4.24
2023-04-05T15:18:48.666Z,8.63
2023-04-05T15:21:15.690Z,7.70
2023-04-05T15:23:42.828Z,8.60
2023-04-05T15:26:09.645Z,8.20
2023-04-05T15:28:36.856Z,8.50
2023-04-05T15:31:05.540Z,8.04
2023-04-05T15:33:32.788Z,8.47
2023-04-05T15:35:59.747Z,6.57
2023-04-05T15:38:27.631Z,6.77
2023-04-05T15:40:54.643Z,5.12
2023-04-05T15:43:22.371Z,4.92
2023-04-05T15:45:49.380Z,5.48
2023-04-05T15:48:16.467Z,4.11
2023-04-05T15:50:43.550Z,3.80
2023-04-05T15:53:10.561Z,4.46
2023-04-05T15:55:37.674Z,5.10
2023-04-05T15:58:04.629Z,3.61
2023-04-05T16:00:33.150Z,4.34
2023-04-05T16:03:00.940Z,4.13
2023-04-05T16:05:28.296Z,3.76
2023-04-05T16:07:55.685Z,5.26
2023-04-05T16:10:22.911Z,3.80
2023-04-05T16:12:49.952Z,3.17
2023-04-05T16:15:17.025Z,4.56
2023-04-05T16:17:44.870Z,4.26
2023-04-05T16:20:12.294Z,2.33
2023-04-05T16:22:39.160Z,2.42
2023-04-05T16:25:06.570Z,2.11
2023-04-05T16:27:34.374Z,1.92
2023-04-05T16:30:01.337Z,2.63
2023-04-05T16:32:28.539Z,2.64
2023-04-05T16:34:55.579Z,3.25
2023-04-05T16:37:22.473Z,2.30
2023-04-05T16:39:50.017Z,2.63
2023-04-05T16:42:16.902Z,2.20
2023-04-05T16:44:43.864Z,2.05
2023-04-05T16:47:11.060Z,1.93
2023-04-05T16:49:38.105Z,1.59
2023-04-05T16:52:04.997Z,3.04
2023-04-05T16:54:32.279Z,2.89
2023-04-05T16:56:59.404Z,2.97
2023-04-05T16:59:26.310Z,2.64
2023-04-05T17:01:53.541Z,2.22
2023-04-05T17:04:20.405Z,3.23
2023-04-05T17:06:47.268Z,1.57
2023-04-05T17:09:14.138Z,1.91
2023-04-05T17:11:41.101Z,1.76
2023-04-05T17:14:08.226Z,2.08
2023-04-05T17:16:35.303Z,2.23
2023-04-05T17:19:02.375Z,1.86
2023-04-05T17:21:29.971Z,1.75
2023-04-05T17:23:56.798Z,1.95
2023-04-05T17:26:24.100Z,1.74
2023-04-05T17:28:50.952Z,1.77
2023-04-05T17:31:19.950Z,1.91
2023-04-05T17:33:48.997Z,2.11
2023-04-05T17:36:16.851Z,2.31
2023-04-05T17:38:44.662Z,1.94
2023-04-05T17:41:11.952Z,1.92
2023-04-05T17:43:38.980Z,1.77
2023-04-05T17:46:05.929Z,0.47
2023-04-05T17:48:33.060Z,-0.36
2023-04-05T17:51:06.320Z,-0.23
2023-04-05T17:53:34.211Z,-0.07
2023-04-05T17:56:01.809Z,0.57
2023-04-05T17:58:32.557Z,0.37
2023-04-05T18:01:00.288Z,-0.15
2023-04-05T18:03:27.966Z,-0.64
2023-04-05T18:05:55.835Z,-0.51
2023-04-05T18:08:23.973Z,-1.24
2023-04-05T18:10:56.772Z,-1.56
2023-04-05T18:13:24.214Z,-1.72
2023-04-05T18:15:55.299Z,-1.85
2023-04-05T18:18:22.772Z,0.05
2023-04-05T18:20:51.702Z,-1.82
2023-04-05T18:23:19.407Z,-1.74
2023-04-05T18:25:46.378Z,-2.28
2023-04-05T18:28:22.373Z,-2.11
2023-04-05T18:30:51.336Z,-1.58
2023-04-05T18:33:19.287Z,-1.83
2023-04-05T18:35:52.629Z,-0.91
2023-04-05T18:38:21.932Z,-0.85
2023-04-05T18:40:49.850Z,-0.86
2023-04-05T18:43:17.066Z,-2.74
2023-04-05T18:45:44.120Z,-2.62
2023-04-05T18:48:11.522Z,-2.81
2023-04-05T18:50:38.468Z,-2.42
2023-04-05T18:53:07.001Z,-2.50
2023-04-05T18:55:34.509Z,-2.88
2023-04-05T18:58:02.760Z,-2.72
2023-04-05T19:00:29.887Z,-2.39
2023-04-05T19:02:57.250Z,-2.95
2023-04-05T19:05:24.520Z,-1.60
2023-04-05T19:07:51.401Z,-1.46
2023-04-05T19:10:18.260Z,-2.84
2023-04-05T19:12:45.410Z,-2.57
2023-04-05T19:15:12.325Z,-2.71
2023-04-05T19:17:39.404Z,-1.83
2023-04-05T19:20:07.066Z,-1.85
2023-04-05T19:22:34.055Z,-1.84
2023-04-05T19:25:03.682Z,-2.49
2023-04-05T19:27:35.799Z,-2.82
2023-04-05T19:30:06.644Z,-2.59
2023-04-05T19:32:33.623Z,-1.45
2023-04-05T19:35:01.089Z,-3.13
2023-04-05T19:37:29.486Z,-2.77
2023-04-05T19:39:56.407Z,-1.16
2023-04-05T19:42:23.502Z,-2.64
2023-04-05T19:44:55.452Z,-4.27
2023-04-05T19:47:22.301Z,-4.30
2023-04-05T19:49:52.511Z,-2.24
2023-04-05T19:52:48.299Z,-3.76
2023-04-05T19:55:37.659Z,-3.67
2023-04-05T19:58:09.174Z,-2.25
2023-04-05T20:00:52.148Z,-1.99
2023-04-05T20:03:31.159Z,-2.69
2023-04-05T20:06:12.197Z,-4.67
2023-04-05T20:08:44.425Z,-1.82
2023-04-05T20:11:12.557Z,-3.96
2023-04-05T20:13:45.440Z,-5.53
2023-04-05T20:16:13.540Z,-4.17
2023-04-05T20:18:44.900Z,-2.38
2023-04-05T20:21:12.285Z,-2.18
2023-04-05T20:23:41.075Z,-1.67
2023-04-05T20:26:08.112Z,-3.04
2023-04-05T20:28:41.597Z,-4.96
2023-04-05T20:31:20.903Z,-6.45
2023-04-05T20:33:52.086Z,-5.41
2023-04-05T20:36:22.221Z,-2.61
2023-04-05T20:38:50.767Z,-1.78
2023-04-05T20:41:19.432Z,-1.42
2023-04-05T20:43:47.285Z,-1.47
2023-04-05T20:46:16.073Z,-3.48
2023-04-05T20:48:43.884Z,-4.44
2023-04-05T20:51:14.128Z,-4.07
2023-04-05T20:53:41.360Z,-2.77
2023-04-05T20:56:09.566Z,-2.21
2023-04-05T20:58:38.433Z,-2.06
2023-04-05T21:01:07.640Z,-3.20
2023-04-05T21:03:37.122Z,-3.06
2023-04-05T21:06:05.803Z,-4.99
2023-04-05T21:08:32.908Z,-3.19
2023-04-05T21:11:00.158Z,-3.29
2023-04-05T21:13:27.029Z,-3.35
2023-04-05T21:15:57.963Z,-3.13
2023-04-05T21:18:25.746Z,-4.61
2023-04-05T21:20:54.016Z,-3.00
2023-04-05T21:23:28.432Z,-3.49
2023-04-05T21:25:56.399Z,-3.12
2023-04-05T21:28:24.426Z,-2.74
2023-04-05T21:30:52.505Z,-4.12
2023-04-05T21:33:20.142Z,-2.40
2023-04-05T21:35:47.323Z,-2.22
2023-04-05T21:38:15.852Z,-4.04
2023-04-05T21:40:44.745Z,-5.78
2023-04-05T21:43:13.292Z,-3.88
2023-04-05T21:45:40.372Z,-3.79
2023-04-05T21:48:08.019Z,-3.06
2023-04-05T21:50:35.558Z,-3.61
2023-04-05T21:53:03.117Z,-3.23
2023-04-05T21:55:30.165Z,-3.15
2023-04-05T21:57:57.050Z,-4.74
2023-04-05T22:00:24.043Z,-5.35
2023-04-05T22:02:51.778Z,-5.12
2023-04-05T22:05:33.933Z,-4.04
2023-04-05T22:08:03.725Z,-3.71
2023-04-05T22:10:30.694Z,-4.01
2023-04-05T22:12:57.559Z,-3.82
2023-04-05T22:15:24.448Z,-2.64
2023-04-05T22:17:52.111Z,-3.28
2023-04-05T22:20:19.020Z,-3.91
2023-04-05T22:22:45.844Z,-3.62
2023-04-05T22:25:12.758Z,-4.16
2023-04-05T22:27:39.648Z,-3.44
2023-04-05T22:30:08.483Z,-4.64
2023-04-05T22:32:35.985Z,-3.09
2023-04-05T22:35:04.697Z,-3.86
2023-04-05T22:37:35.954Z,-3.34
2023-04-05T22:40:04.674Z,-3.45
2023-04-05T22:42:32.026Z,-5.13
2023-04-05T22:44:58.923Z,-5.87
2023-04-05T22:47:26.438Z,-4.57
2023-04-05T22:49:53.763Z,-3.69
2023-04-05T22:52:21.406Z,-3.62
2023-04-05T22:54:48.583Z,-3.90
2023-04-05T22:57:15.887Z,-5.89
2023-04-05T22:59:43.106Z,-6.76
2023-04-05T23:02:12.409Z,-5.07
2023-04-05T23:04:39.581Z,-5.09
2023-04-05T23:07:07.348Z,-3.90
2023-04-05T23:09:34.265Z,-6.50
2023-04-05T23:12:01.626Z,-4.84
2023-04-05T23:14:28.469Z,-3.25
2023-04-05T23:16:55.606Z,-3.09
2023-04-05T23:19:23.469Z,-3.43
2023-04-05T23:21:50.358Z,-3.74
2023-04-05T23:24:17.367Z,-3.63
2023-04-05T23:26:44.204Z,-3.01
2023-04-05T23:29:11.261Z,-5.91
2023-04-05T23:31:39.364Z,-7.08
2023-04-05T23:34:06.365Z,-4.82
2023-04-05T23:36:34.209Z,-4.75
2023-04-05T23:39:01.377Z,-5.39
2023-04-05T23:41:28.413Z,-5.59
2023-04-05T23:43:55.532Z,-5.18
2023-04-05T23:46:23.764Z,-6.83
2023-04-05T23:48:50.666Z,-6.38
2023-04-05T23:51:17.728Z,-6.48
2023-04-05T23:53:44.568Z,-6.71
2023-04-05T23:56:11.485Z,-5.85
2023-04-05T23:58:42.254Z,-4.93
